sensor_id;sensor_type;location;lat;lon;timestamp;P1;durP1;ratioP1;P2;durP2;ratioP2
5191;SDS011;2615;44.524;11.284;2023-04-25T00:02:26;10.57;;;3.70;;
5191;SDS011;2615;44.524;11.284;2023-04-25T00:04:54;13.23;;;4.70;;
5191;SDS011;2615;44.524;11.284;2023-04-25T00:07:26;9.33;;;3.13;;
5191;SDS011;2615;44.524;11.284;2023-04-25T00:09:54;7.60;;;3.13;;
5191;SDS011;2615;44.524;11.284;2023-04-25T00:12:22;9.07;;;2.93;;
5191;SDS011;2615;44.524;11.284;2023-04-25T00:14:50;5.37;;;2.73;;
5191;SDS011;2615;44.524;11.284;2023-04-25T00:17:19;10.10;;;2.90;;
5191;SDS011;2615;44.524;11.284;2023-04-25T00:19:48;10.00;;;3.33;;
5191;SDS011;2615;44.524;11.284;2023-04-25T00:22:16;7.17;;;2.70;;
5191;SDS011;2615;44.524;11.284;2023-04-25T00:24:45;9.53;;;2.70;;
5191;SDS011;2615;44.524;11.284;2023-04-25T00:27:13;12.17;;;3.27;;
5191;SDS011;2615;44.524;11.284;2023-04-25T00:29:41;12.53;;;3.63;;
5191;SDS011;2615;44.524;11.284;2023-04-25T00:32:10;7.77;;;3.20;;
5191;SDS011;2615;44.524;11.284;2023-04-25T00:34:38;13.33;;;3.30;;
5191;SDS011;2615;44.524;11.284;2023-04-25T00:37:06;15.33;;;3.93;;
5191;SDS011;2615;44.524;11.284;2023-04-25T00:39:34;15.60;;;3.93;;
5191;SDS011;2615;44.524;11.284;2023-04-25T00:42:03;9.77;;;3.47;;
5191;SDS011;2615;44.524;11.284;2023-04-25T00:44:32;10.27;;;2.93;;
5191;SDS011;2615;44.524;11.284;2023-04-25T00:47:02;9.10;;;2.90;;
5191;SDS011;2615;44.524;11.284;2023-04-25T00:49:30;9.73;;;3.63;;
5191;SDS011;2615;44.524;11.284;2023-04-25T00:51:58;19.07;;;3.43;;
5191;SDS011;2615;44.524;11.284;2023-04-25T00:54:26;7.30;;;2.63;;
5191;SDS011;2615;44.524;11.284;2023-04-25T00:56:54;9.60;;;2.73;;
5191;SDS011;2615;44.524;11.284;2023-04-25T00:59:24;12.40;;;3.30;;
5191;SDS011;2615;44.524;11.284;2023-04-25T01:01:53;8.77;;;3.90;;
5191;SDS011;2615;44.524;11.284;2023-04-25T01:04:21;8.93;;;3.00;;
5191;SDS011;2615;44.524;11.284;2023-04-25T01:06:50;8.67;;;2.57;;
5191;SDS011;2615;44.524;11.284;2023-04-25T01:09:18;8.63;;;3.60;;
5191;SDS011;2615;44.524;11.284;2023-04-25T01:11:47;13.80;;;4.53;;
5191;SDS011;2615;44.524;11.284;2023-04-25T01:14:16;15.63;;;4.20;;
5191;SDS011;2615;44.524;11.284;2023-04-25T01:16:45;12.37;;;2.90;;
5191;SDS011;2615;44.524;11.284;2023-04-25T01:19:16;10.70;;;3.10;;
5191;SDS011;2615;44.524;11.284;2023-04-25T01:21:47;8.00;;;3.07;;
5191;SDS011;2615;44.524;11.284;2023-04-25T01:24:15;8.20;;;3.20;;
5191;SDS011;2615;44.524;11.284;2023-04-25T01:26:43;10.40;;;3.63;;
5191;SDS011;2615;44.524;11.284;2023-04-25T01:29:16;8.70;;;3.10;;
5191;SDS011;2615;44.524;11.284;2023-04-25T01:31:45;10.53;;;3.90;;
5191;SDS011;2615;44.524;11.284;2023-04-25T01:34:13;9.40;;;3.73;;
5191;SDS011;2615;44.524;11.284;2023-04-25T01:36:41;8.47;;;3.50;;
5191;SDS011;2615;44.524;11.284;2023-04-25T01:39:11;12.03;;;3.30;;
5191;SDS011;2615;44.524;11.284;2023-04-25T01:41:39;13.97;;;4.20;;
5191;SDS011;2615;44.524;11.284;2023-04-25T01:44:07;7.90;;;3.23;;
5191;SDS011;2615;44.524;11.284;2023-04-25T01:46:35;11.97;;;3.80;;
5191;SDS011;2615;44.524;11.284;2023-04-25T01:49:04;8.40;;;4.00;;
5191;SDS011;2615;44.524;11.284;2023-04-25T01:51:32;9.57;;;3.60;;
5191;SDS011;2615;44.524;11.284;2023-04-25T01:54:00;8.90;;;3.80;;
5191;SDS011;2615;44.524;11.284;2023-04-25T01:56:36;11.60;;;4.50;;
5191;SDS011;2615;44.524;11.284;2023-04-25T01:59:04;7.73;;;3.70;;
5191;SDS011;2615;44.524;11.284;2023-04-25T02:01:33;15.00;;;4.00;;
5191;SDS011;2615;44.524;11.284;2023-04-25T02:04:01;9.67;;;3.23;;
5191;SDS011;2615;44.524;11.284;2023-04-25T02:06:29;9.90;;;4.50;;
5191;SDS011;2615;44.524;11.284;2023-04-25T02:08:58;9.13;;;3.23;;
5191;SDS011;2615;44.524;11.284;2023-04-25T02:11:26;8.07;;;2.80;;
5191;SDS011;2615;44.524;11.284;2023-04-25T02:13:56;6.50;;;3.87;;
5191;SDS011;2615;44.524;11.284;2023-04-25T02:16:24;14.20;;;3.40;;
5191;SDS011;2615;44.524;11.284;2023-04-25T02:18:52;8.63;;;3.60;;
5191;SDS011;2615;44.524;11.284;2023-04-25T02:21:20;8.97;;;3.43;;
5191;SDS011;2615;44.524;11.284;2023-04-25T02:23:48;7.10;;;3.03;;
5191;SDS011;2615;44.524;11.284;2023-04-25T02:26:18;6.23;;;4.00;;
5191;SDS011;2615;44.524;11.284;2023-04-25T02:28:47;10.00;;;3.90;;
5191;SDS011;2615;44.524;11.284;2023-04-25T02:31:17;7.47;;;3.40;;
5191;SDS011;2615;44.524;11.284;2023-04-25T02:33:45;8.50;;;3.73;;
5191;SDS011;2615;44.524;11.284;2023-04-25T02:36:14;8.90;;;4.20;;
5191;SDS011;2615;44.524;11.284;2023-04-25T02:38:42;8.90;;;3.80;;
5191;SDS011;2615;44.524;11.284;2023-04-25T02:41:10;17.40;;;4.27;;
5191;SDS011;2615;44.524;11.284;2023-04-25T02:43:38;10.03;;;3.53;;
5191;SDS011;2615;44.524;11.284;2023-04-25T02:46:06;8.13;;;3.47;;
5191;SDS011;2615;44.524;11.284;2023-04-25T02:48:36;12.73;;;3.77;;
5191;SDS011;2615;44.524;11.284;2023-04-25T02:51:04;17.10;;;4.57;;
5191;SDS011;2615;44.524;11.284;2023-04-25T02:53:32;14.97;;;3.37;;
5191;SDS011;2615;44.524;11.284;2023-04-25T02:56:00;13.70;;;4.13;;
5191;SDS011;2615;44.524;11.284;2023-04-25T02:58:28;11.10;;;3.57;;
5191;SDS011;2615;44.524;11.284;2023-04-25T03:00:56;12.90;;;3.83;;
5191;SDS011;2615;44.524;11.284;2023-04-25T03:03:25;11.60;;;3.13;;
5191;SDS011;2615;44.524;11.284;2023-04-25T03:05:54;13.13;;;4.20;;
5191;SDS011;2615;44.524;11.284;2023-04-25T03:08:22;8.10;;;4.20;;
5191;SDS011;2615;44.524;11.284;2023-04-25T03:10:51;14.20;;;4.50;;
5191;SDS011;2615;44.524;11.284;2023-04-25T03:13:21;7.90;;;3.60;;
5191;SDS011;2615;44.524;11.284;2023-04-25T03:15:50;7.87;;;3.77;;
5191;SDS011;2615;44.524;11.284;2023-04-25T03:18:18;7.43;;;4.40;;
5191;SDS011;2615;44.524;11.284;2023-04-25T03:20:46;9.07;;;3.47;;
5191;SDS011;2615;44.524;11.284;2023-04-25T03:23:15;7.33;;;3.70;;
5191;SDS011;2615;44.524;11.284;2023-04-25T03:25:43;12.10;;;3.97;;
5191;SDS011;2615;44.524;11.284;2023-04-25T03:28:11;8.63;;;4.33;;
5191;SDS011;2615;44.524;11.284;2023-04-25T03:30:39;8.53;;;4.03;;
5191;SDS011;2615;44.524;11.284;2023-04-25T03:33:07;10.07;;;4.17;;
5191;SDS011;2615;44.524;11.284;2023-04-25T03:35:36;12.43;;;4.00;;
5191;SDS011;2615;44.524;11.284;2023-04-25T03:38:04;14.07;;;5.27;;
5191;SDS011;2615;44.524;11.284;2023-04-25T03:40:33;9.40;;;4.07;;
5191;SDS011;2615;44.524;11.284;2023-04-25T03:43:01;7.27;;;3.77;;
5191;SDS011;2615;44.524;11.284;2023-04-25T03:45:29;11.50;;;4.60;;
5191;SDS011;2615;44.524;11.284;2023-04-25T03:47:57;7.43;;;4.30;;
5191;SDS011;2615;44.524;11.284;2023-04-25T03:50:26;11.60;;;4.53;;
5191;SDS011;2615;44.524;11.284;2023-04-25T03:52:54;6.97;;;4.10;;
5191;SDS011;2615;44.524;11.284;2023-04-25T03:55:22;10.40;;;4.07;;
5191;SDS011;2615;44.524;11.284;2023-04-25T03:57:51;10.00;;;5.13;;
5191;SDS011;2615;44.524;11.284;2023-04-25T04:00:19;8.90;;;4.23;;
5191;SDS011;2615;44.524;11.284;2023-04-25T04:02:48;13.90;;;5.07;;
5191;SDS011;2615;44.524;11.284;2023-04-25T04:05:17;11.63;;;4.93;;
5191;SDS011;2615;44.524;11.284;2023-04-25T04:07:45;7.70;;;5.23;;
5191;SDS011;2615;44.524;11.284;2023-04-25T04:10:13;11.57;;;5.37;;
5191;SDS011;2615;44.524;11.284;2023-04-25T04:12:42;12.17;;;4.30;;
5191;SDS011;2615;44.524;11.284;2023-04-25T04:15:12;17.70;;;5.33;;
5191;SDS011;2615;44.524;11.284;2023-04-25T04:17:40;7.60;;;5.00;;
5191;SDS011;2615;44.524;11.284;2023-04-25T04:20:09;11.13;;;5.80;;
5191;SDS011;2615;44.524;11.284;2023-04-25T04:22:37;11.20;;;5.70;;
5191;SDS011;2615;44.524;11.284;2023-04-25T04:25:05;8.40;;;5.70;;
5191;SDS011;2615;44.524;11.284;2023-04-25T04:27:34;8.70;;;5.33;;
5191;SDS011;2615;44.524;11.284;2023-04-25T04:30:02;11.60;;;6.50;;
5191;SDS011;2615;44.524;11.284;2023-04-25T04:32:33;11.80;;;6.30;;
5191;SDS011;2615;44.524;11.284;2023-04-25T04:35:04;11.90;;;7.63;;
5191;SDS011;2615;44.524;11.284;2023-04-25T04:37:33;13.47;;;6.80;;
5191;SDS011;2615;44.524;11.284;2023-04-25T04:40:01;15.77;;;7.87;;
5191;SDS011;2615;44.524;11.284;2023-04-25T04:42:32;11.27;;;7.33;;
5191;SDS011;2615;44.524;11.284;2023-04-25T04:45:00;13.33;;;7.77;;
5191;SDS011;2615;44.524;11.284;2023-04-25T04:47:30;11.03;;;7.63;;
5191;SDS011;2615;44.524;11.284;2023-04-25T04:50:00;10.80;;;7.50;;
5191;SDS011;2615;44.524;11.284;2023-04-25T04:52:28;13.20;;;8.03;;
5191;SDS011;2615;44.524;11.284;2023-04-25T04:54:56;14.40;;;8.70;;
5191;SDS011;2615;44.524;11.284;2023-04-25T04:57:24;15.50;;;8.13;;
5191;SDS011;2615;44.524;11.284;2023-04-25T04:59:52;9.03;;;7.43;;
5191;SDS011;2615;44.524;11.284;2023-04-25T05:02:20;13.00;;;8.87;;
5191;SDS011;2615;44.524;11.284;2023-04-25T05:04:49;14.00;;;9.10;;
5191;SDS011;2615;44.524;11.284;2023-04-25T05:07:19;16.00;;;9.47;;
5191;SDS011;2615;44.524;11.284;2023-04-25T05:09:47;12.97;;;9.17;;
5191;SDS011;2615;44.524;11.284;2023-04-25T05:12:15;21.20;;;11.70;;
5191;SDS011;2615;44.524;11.284;2023-04-25T05:14:43;12.97;;;10.27;;
5191;SDS011;2615;44.524;11.284;2023-04-25T05:17:11;11.00;;;9.07;;
5191;SDS011;2615;44.524;11.284;2023-04-25T05:19:40;15.93;;;9.90;;
5191;SDS011;2615;44.524;11.284;2023-04-25T05:22:08;15.37;;;10.90;;
5191;SDS011;2615;44.524;11.284;2023-04-25T05:24:38;13.03;;;10.90;;
5191;SDS011;2615;44.524;11.284;2023-04-25T05:27:06;13.90;;;10.50;;
5191;SDS011;2615;44.524;11.284;2023-04-25T05:29:34;16.63;;;9.97;;
5191;SDS011;2615;44.524;11.284;2023-04-25T05:32:02;13.90;;;10.30;;
5191;SDS011;2615;44.524;11.284;2023-04-25T05:34:31;15.97;;;10.10;;
5191;SDS011;2615;44.524;11.284;2023-04-25T05:36:59;17.37;;;11.77;;
5191;SDS011;2615;44.524;11.284;2023-04-25T05:39:27;14.80;;;11.57;;
5191;SDS011;2615;44.524;11.284;2023-04-25T05:41:56;16.93;;;11.17;;
5191;SDS011;2615;44.524;11.284;2023-04-25T05:44:24;13.00;;;10.50;;
5191;SDS011;2615;44.524;11.284;2023-04-25T05:46:53;16.50;;;11.30;;
5191;SDS011;2615;44.524;11.284;2023-04-25T05:49:21;19.47;;;10.67;;
5191;SDS011;2615;44.524;11.284;2023-04-25T05:51:49;14.87;;;10.60;;
5191;SDS011;2615;44.524;11.284;2023-04-25T05:54:17;16.80;;;10.30;;
5191;SDS011;2615;44.524;11.284;2023-04-25T05:56:46;18.37;;;11.50;;
5191;SDS011;2615;44.524;11.284;2023-04-25T05:59:15;15.43;;;11.13;;
5191;SDS011;2615;44.524;11.284;2023-04-25T06:01:43;14.93;;;11.30;;
5191;SDS011;2615;44.524;11.284;2023-04-25T06:04:11;17.07;;;11.17;;
5191;SDS011;2615;44.524;11.284;2023-04-25T06:06:40;18.57;;;11.60;;
5191;SDS011;2615;44.524;11.284;2023-04-25T06:09:08;19.17;;;13.63;;
5191;SDS011;2615;44.524;11.284;2023-04-25T06:11:39;21.90;;;14.57;;
5191;SDS011;2615;44.524;11.284;2023-04-25T06:14:07;19.77;;;14.63;;
5191;SDS011;2615;44.524;11.284;2023-04-25T06:16:37;20.57;;;15.70;;
5191;SDS011;2615;44.524;11.284;2023-04-25T06:19:05;22.00;;;15.70;;
5191;SDS011;2615;44.524;11.284;2023-04-25T06:21:33;23.90;;;15.60;;
5191;SDS011;2615;44.524;11.284;2023-04-25T06:24:02;20.13;;;14.70;;
5191;SDS011;2615;44.524;11.284;2023-04-25T06:26:30;21.67;;;16.27;;
5191;SDS011;2615;44.524;11.284;2023-04-25T06:28:58;21.63;;;15.87;;
5191;SDS011;2615;44.524;11.284;2023-04-25T06:31:26;22.53;;;15.77;;
5191;SDS011;2615;44.524;11.284;2023-04-25T06:33:56;19.93;;;15.27;;
5191;SDS011;2615;44.524;11.284;2023-04-25T06:36:24;19.83;;;15.63;;
5191;SDS011;2615;44.524;11.284;2023-04-25T06:38:53;19.73;;;15.70;;
5191;SDS011;2615;44.524;11.284;2023-04-25T06:41:22;20.80;;;15.27;;
5191;SDS011;2615;44.524;11.284;2023-04-25T06:43:50;18.97;;;16.37;;
5191;SDS011;2615;44.524;11.284;2023-04-25T06:46:18;21.80;;;15.90;;
5191;SDS011;2615;44.524;11.284;2023-04-25T06:48:46;20.90;;;15.80;;
5191;SDS011;2615;44.524;11.284;2023-04-25T06:51:16;22.93;;;15.27;;
5191;SDS011;2615;44.524;11.284;2023-04-25T06:53:44;16.63;;;14.10;;
5191;SDS011;2615;44.524;11.284;2023-04-25T06:56:12;17.03;;;14.47;;
5191;SDS011;2615;44.524;11.284;2023-04-25T06:58:41;18.17;;;14.10;;
5191;SDS011;2615;44.524;11.284;2023-04-25T07:01:09;17.50;;;11.27;;
5191;SDS011;2615;44.524;11.284;2023-04-25T07:03:37;13.90;;;11.40;;
5191;SDS011;2615;44.524;11.284;2023-04-25T07:06:06;11.23;;;9.60;;
5191;SDS011;2615;44.524;11.284;2023-04-25T07:08:35;11.20;;;10.07;;
5191;SDS011;2615;44.524;11.284;2023-04-25T07:11:03;14.17;;;9.57;;
5191;SDS011;2615;44.524;11.284;2023-04-25T07:13:31;9.80;;;8.17;;
5191;SDS011;2615;44.524;11.284;2023-04-25T07:15:59;10.13;;;7.47;;
5191;SDS011;2615;44.524;11.284;2023-04-25T07:18:28;15.07;;;9.23;;
5191;SDS011;2615;44.524;11.284;2023-04-25T07:20:56;9.30;;;7.57;;
5191;SDS011;2615;44.524;11.284;2023-04-25T07:23:24;11.93;;;7.80;;
5191;SDS011;2615;44.524;11.284;2023-04-25T07:25:53;13.13;;;7.87;;
5191;SDS011;2615;44.524;11.284;2023-04-25T07:28:22;17.30;;;8.80;;
5191;SDS011;2615;44.524;11.284;2023-04-25T07:30:50;11.60;;;8.10;;
5191;SDS011;2615;44.524;11.284;2023-04-25T07:33:18;9.10;;;8.07;;
5191;SDS011;2615;44.524;11.284;2023-04-25T07:35:46;10.23;;;8.27;;
5191;SDS011;2615;44.524;11.284;2023-04-25T07:38:15;12.27;;;9.80;;
5191;SDS011;2615;44.524;11.284;2023-04-25T07:40:43;12.70;;;8.77;;
5191;SDS011;2615;44.524;11.284;2023-04-25T07:43:12;19.13;;;9.70;;
5191;SDS011;2615;44.524;11.284;2023-04-25T07:45:42;13.37;;;8.63;;
5191;SDS011;2615;44.524;11.284;2023-04-25T07:48:11;15.83;;;8.50;;
5191;SDS011;2615;44.524;11.284;2023-04-25T07:50:39;10.17;;;7.30;;
5191;SDS011;2615;44.524;11.284;2023-04-25T07:53:07;11.30;;;8.03;;
5191;SDS011;2615;44.524;11.284;2023-04-25T07:55:35;9.20;;;7.63;;
5191;SDS011;2615;44.524;11.284;2023-04-25T07:58:06;13.37;;;9.70;;
5191;SDS011;2615;44.524;11.284;2023-04-25T08:00:35;10.57;;;8.80;;
5191;SDS011;2615;44.524;11.284;2023-04-25T08:03:04;12.73;;;9.90;;
5191;SDS011;2615;44.524;11.284;2023-04-25T08:05:33;11.37;;;10.17;;
5191;SDS011;2615;44.524;11.284;2023-04-25T08:08:01;14.23;;;9.67;;
5191;SDS011;2615;44.524;11.284;2023-04-25T08:10:29;12.17;;;9.97;;
5191;SDS011;2615;44.524;11.284;2023-04-25T08:12:57;12.50;;;9.80;;
5191;SDS011;2615;44.524;11.284;2023-04-25T08:15:26;14.70;;;9.40;;
5191;SDS011;2615;44.524;11.284;2023-04-25T08:17:55;12.80;;;9.23;;
5191;SDS011;2615;44.524;11.284;2023-04-25T08:20:23;13.27;;;10.33;;
5191;SDS011;2615;44.524;11.284;2023-04-25T08:22:52;10.57;;;9.47;;
5191;SDS011;2615;44.524;11.284;2023-04-25T08:25:20;12.73;;;10.33;;
5191;SDS011;2615;44.524;11.284;2023-04-25T08:27:48;11.93;;;8.67;;
5191;SDS011;2615;44.524;11.284;2023-04-25T08:30:16;15.13;;;10.37;;
5191;SDS011;2615;44.524;11.284;2023-04-25T08:32:45;11.90;;;9.53;;
5191;SDS011;2615;44.524;11.284;2023-04-25T08:35:14;16.70;;;10.90;;
5191;SDS011;2615;44.524;11.284;2023-04-25T08:37:43;15.73;;;12.57;;
5191;SDS011;2615;44.524;11.284;2023-04-25T08:40:12;12.53;;;9.03;;
5191;SDS011;2615;44.524;11.284;2023-04-25T08:42:42;11.80;;;9.07;;
5191;SDS011;2615;44.524;11.284;2023-04-25T08:45:10;12.77;;;7.33;;
5191;SDS011;2615;44.524;11.284;2023-04-25T08:47:38;7.17;;;3.97;;
5191;SDS011;2615;44.524;11.284;2023-04-25T08:50:07;5.10;;;2.33;;
5191;SDS011;2615;44.524;11.284;2023-04-25T08:52:39;2.70;;;1.77;;
5191;SDS011;2615;44.524;11.284;2023-04-25T08:55:11;8.40;;;1.77;;
5191;SDS011;2615;44.524;11.284;2023-04-25T08:57:40;3.17;;;1.60;;
5191;SDS011;2615;44.524;11.284;2023-04-25T09:00:10;2.70;;;1.30;;
5191;SDS011;2615;44.524;11.284;2023-04-25T09:02:39;2.60;;;1.60;;
5191;SDS011;2615;44.524;11.284;2023-04-25T09:05:11;2.70;;;1.40;;
5191;SDS011;2615;44.524;11.284;2023-04-25T09:07:41;4.57;;;2.10;;
5191;SDS011;2615;44.524;11.284;2023-04-25T09:10:10;2.40;;;1.70;;
5191;SDS011;2615;44.524;11.284;2023-04-25T09:12:38;2.97;;;1.30;;
5191;SDS011;2615;44.524;11.284;2023-04-25T09:15:07;7.53;;;1.40;;
5191;SDS011;2615;44.524;11.284;2023-04-25T09:17:37;2.97;;;1.07;;
5191;SDS011;2615;44.524;11.284;2023-04-25T09:20:11;2.43;;;1.20;;
5191;SDS011;2615;44.524;11.284;2023-04-25T09:22:42;2.13;;;1.03;;
5191;SDS011;2615;44.524;11.284;2023-04-25T09:25:13;2.40;;;1.20;;
5191;SDS011;2615;44.524;11.284;2023-04-25T09:27:50;3.30;;;1.20;;
5191;SDS011;2615;44.524;11.284;2023-04-25T09:30:28;5.07;;;1.57;;
5191;SDS011;2615;44.524;11.284;2023-04-25T09:32:57;2.90;;;1.10;;
5191;SDS011;2615;44.524;11.284;2023-04-25T09:35:34;4.17;;;0.90;;
5191;SDS011;2615;44.524;11.284;2023-04-25T09:38:09;1.90;;;0.80;;
5191;SDS011;2615;44.524;11.284;2023-04-25T09:40:39;2.20;;;1.20;;
5191;SDS011;2615;44.524;11.284;2023-04-25T09:43:18;1.50;;;0.50;;
5191;SDS011;2615;44.524;11.284;2023-04-25T09:45:47;4.00;;;0.70;;
5191;SDS011;2615;44.524;11.284;2023-04-25T09:48:16;1.80;;;0.77;;
5191;SDS011;2615;44.524;11.284;2023-04-25T09:50:47;1.93;;;0.90;;
5191;SDS011;2615;44.524;11.284;2023-04-25T09:53:33;2.00;;;0.93;;
5191;SDS011;2615;44.524;11.284;2023-04-25T09:56:03;2.00;;;0.60;;
5191;SDS011;2615;44.524;11.284;2023-04-25T09:58:33;2.20;;;0.60;;
5191;SDS011;2615;44.524;11.284;2023-04-25T10:01:03;1.70;;;0.70;;
5191;SDS011;2615;44.524;11.284;2023-04-25T10:03:33;2.10;;;0.70;;
5191;SDS011;2615;44.524;11.284;2023-04-25T10:06:03;1.70;;;0.90;;
5191;SDS011;2615;44.524;11.284;2023-04-25T10:08:36;1.90;;;0.80;;
5191;SDS011;2615;44.524;11.284;2023-04-25T10:11:05;1.87;;;0.73;;
5191;SDS011;2615;44.524;11.284;2023-04-25T10:13:35;3.00;;;0.90;;
5191;SDS011;2615;44.524;11.284;2023-04-25T10:16:04;1.70;;;0.50;;
5191;SDS011;2615;44.524;11.284;2023-04-25T10:18:32;4.03;;;0.60;;
5191;SDS011;2615;44.524;11.284;2023-04-25T10:21:01;1.63;;;0.60;;
5191;SDS011;2615;44.524;11.284;2023-04-25T10:23:31;1.70;;;0.70;;
5191;SDS011;2615;44.524;11.284;2023-04-25T10:26:02;2.57;;;0.70;;
5191;SDS011;2615;44.524;11.284;2023-04-25T10:28:30;2.80;;;1.00;;
5191;SDS011;2615;44.524;11.284;2023-04-25T10:31:25;1.90;;;0.60;;
5191;SDS011;2615;44.524;11.284;2023-04-25T10:33:53;3.03;;;0.80;;
5191;SDS011;2615;44.524;11.284;2023-04-25T10:36:22;2.70;;;0.83;;
5191;SDS011;2615;44.524;11.284;2023-04-25T10:38:53;2.20;;;0.80;;
5191;SDS011;2615;44.524;11.284;2023-04-25T10:41:23;2.00;;;0.77;;
5191;SDS011;2615;44.524;11.284;2023-04-25T10:43:58;1.80;;;0.60;;
5191;SDS011;2615;44.524;11.284;2023-04-25T10:46:28;1.57;;;0.60;;
5191;SDS011;2615;44.524;11.284;2023-04-25T10:48:57;1.67;;;0.63;;
5191;SDS011;2615;44.524;11.284;2023-04-25T10:51:27;2.30;;;0.80;;
5191;SDS011;2615;44.524;11.284;2023-04-25T10:54:16;1.70;;;0.67;;
5191;SDS011;2615;44.524;11.284;2023-04-25T10:56:48;1.70;;;0.80;;
5191;SDS011;2615;44.524;11.284;2023-04-25T10:59:17;1.93;;;0.67;;
5191;SDS011;2615;44.524;11.284;2023-04-25T11:01:47;2.03;;;0.80;;
5191;SDS011;2615;44.524;11.284;2023-04-25T11:04:19;2.63;;;0.80;;
5191;SDS011;2615;44.524;11.284;2023-04-25T11:07:00;3.20;;;0.70;;
5191;SDS011;2615;44.524;11.284;2023-04-25T11:09:35;1.80;;;0.80;;
5191;SDS011;2615;44.524;11.284;2023-04-25T11:12:07;1.70;;;0.70;;
5191;SDS011;2615;44.524;11.284;2023-04-25T11:14:37;1.90;;;0.73;;
5191;SDS011;2615;44.524;11.284;2023-04-25T11:17:11;2.17;;;0.77;;
5191;SDS011;2615;44.524;11.284;2023-04-25T11:19:39;1.80;;;0.73;;
5191;SDS011;2615;44.524;11.284;2023-04-25T11:22:07;2.83;;;0.70;;
5191;SDS011;2615;44.524;11.284;2023-04-25T11:24:37;1.70;;;0.63;;
5191;SDS011;2615;44.524;11.284;2023-04-25T11:27:07;1.90;;;0.77;;
5191;SDS011;2615;44.524;11.284;2023-04-25T11:29:36;2.10;;;0.70;;
5191;SDS011;2615;44.524;11.284;2023-04-25T11:32:04;1.90;;;0.57;;
5191;SDS011;2615;44.524;11.284;2023-04-25T11:34:32;1.90;;;0.70;;
5191;SDS011;2615;44.524;11.284;2023-04-25T11:37:01;2.57;;;0.90;;
5191;SDS011;2615;44.524;11.284;2023-04-25T11:39:30;3.33;;;0.60;;
5191;SDS011;2615;44.524;11.284;2023-04-25T11:41:58;1.70;;;0.60;;
5191;SDS011;2615;44.524;11.284;2023-04-25T11:44:32;1.60;;;0.60;;
5191;SDS011;2615;44.524;11.284;2023-04-25T11:47:01;1.40;;;0.40;;
5191;SDS011;2615;44.524;11.284;2023-04-25T11:49:30;1.90;;;0.80;;
5191;SDS011;2615;44.524;11.284;2023-04-25T11:51:58;1.60;;;0.50;;
5191;SDS011;2615;44.524;11.284;2023-04-25T11:54:26;5.77;;;1.00;;
5191;SDS011;2615;44.524;11.284;2023-04-25T11:56:54;1.70;;;0.70;;
5191;SDS011;2615;44.524;11.284;2023-04-25T11:59:23;2.37;;;0.80;;
5191;SDS011;2615;44.524;11.284;2023-04-25T12:01:54;2.70;;;1.23;;
5191;SDS011;2615;44.524;11.284;2023-04-25T12:04:24;2.53;;;0.77;;
5191;SDS011;2615;44.524;11.284;2023-04-25T12:06:53;1.87;;;0.87;;
5191;SDS011;2615;44.524;11.284;2023-04-25T12:09:27;1.93;;;0.60;;
5191;SDS011;2615;44.524;11.284;2023-04-25T12:11:57;1.93;;;0.60;;
5191;SDS011;2615;44.524;11.284;2023-04-25T12:14:29;2.00;;;0.80;;
5191;SDS011;2615;44.524;11.284;2023-04-25T12:17:00;1.70;;;0.60;;
5191;SDS011;2615;44.524;11.284;2023-04-25T12:19:33;1.50;;;0.50;;
5191;SDS011;2615;44.524;11.284;2023-04-25T12:22:02;3.97;;;1.00;;
5191;SDS011;2615;44.524;11.284;2023-04-25T12:24:33;22.63;;;5.20;;
5191;SDS011;2615;44.524;11.284;2023-04-25T12:27:05;1.97;;;0.63;;
5191;SDS011;2615;44.524;11.284;2023-04-25T12:29:35;3.17;;;0.60;;
5191;SDS011;2615;44.524;11.284;2023-04-25T12:32:17;1.70;;;0.70;;
5191;SDS011;2615;44.524;11.284;2023-04-25T12:34:45;1.70;;;0.60;;
5191;SDS011;2615;44.524;11.284;2023-04-25T12:37:13;1.87;;;0.50;;
5191;SDS011;2615;44.524;11.284;2023-04-25T12:39:42;2.10;;;0.80;;
5191;SDS011;2615;44.524;11.284;2023-04-25T12:42:10;2.80;;;0.80;;
5191;SDS011;2615;44.524;11.284;2023-04-25T12:44:39;2.23;;;0.70;;
5191;SDS011;2615;44.524;11.284;2023-04-25T12:47:07;3.40;;;0.80;;
5191;SDS011;2615;44.524;11.284;2023-04-25T12:49:37;126.47;;;31.00;;
5191;SDS011;2615;44.524;11.284;2023-04-25T12:52:05;101.50;;;27.87;;
5191;SDS011;2615;44.524;11.284;2023-04-25T12:54:33;2.93;;;0.97;;
5191;SDS011;2615;44.524;11.284;2023-04-25T12:57:02;3.67;;;1.20;;
5191;SDS011;2615;44.524;11.284;2023-04-25T12:59:30;3.70;;;1.20;;
5191;SDS011;2615;44.524;11.284;2023-04-25T13:01:58;2.47;;;0.80;;
5191;SDS011;2615;44.524;11.284;2023-04-25T13:04:27;2.20;;;0.77;;
5191;SDS011;2615;44.524;11.284;2023-04-25T13:06:57;2.10;;;0.80;;
5191;SDS011;2615;44.524;11.284;2023-04-25T13:09:25;2.47;;;0.87;;
5191;SDS011;2615;44.524;11.284;2023-04-25T13:11:53;2.00;;;0.70;;
5191;SDS011;2615;44.524;11.284;2023-04-25T13:14:24;2.60;;;0.80;;
5191;SDS011;2615;44.524;11.284;2023-04-25T13:16:52;2.30;;;0.73;;
5191;SDS011;2615;44.524;11.284;2023-04-25T13:19:21;3.40;;;0.70;;
5191;SDS011;2615;44.524;11.284;2023-04-25T13:21:49;1.90;;;0.80;;
5191;SDS011;2615;44.524;11.284;2023-04-25T13:24:19;1.70;;;0.60;;
5191;SDS011;2615;44.524;11.284;2023-04-25T13:26:47;1.77;;;0.60;;
5191;SDS011;2615;44.524;11.284;2023-04-25T13:29:15;2.73;;;0.80;;
5191;SDS011;2615;44.524;11.284;2023-04-25T13:31:43;1.70;;;0.50;;
5191;SDS011;2615;44.524;11.284;2023-04-25T13:34:11;1.80;;;0.80;;
5191;SDS011;2615;44.524;11.284;2023-04-25T13:36:39;2.20;;;0.60;;
5191;SDS011;2615;44.524;11.284;2023-04-25T13:39:07;1.70;;;0.47;;
5191;SDS011;2615;44.524;11.284;2023-04-25T13:41:37;1.40;;;0.40;;
5191;SDS011;2615;44.524;11.284;2023-04-25T13:44:06;2.33;;;0.60;;
5191;SDS011;2615;44.524;11.284;2023-04-25T13:46:39;2.73;;;1.00;;
5191;SDS011;2615;44.524;11.284;2023-04-25T13:49:12;2.27;;;0.77;;
5191;SDS011;2615;44.524;11.284;2023-04-25T13:51:41;2.43;;;0.60;;
5191;SDS011;2615;44.524;11.284;2023-04-25T13:54:09;2.63;;;0.80;;
5191;SDS011;2615;44.524;11.284;2023-04-25T13:56:43;2.27;;;0.80;;
5191;SDS011;2615;44.524;11.284;2023-04-25T13:59:11;3.03;;;0.80;;
5191;SDS011;2615;44.524;11.284;2023-04-25T14:01:39;4.50;;;1.00;;
5191;SDS011;2615;44.524;11.284;2023-04-25T14:04:08;3.33;;;0.90;;
5191;SDS011;2615;44.524;11.284;2023-04-25T14:06:36;3.47;;;0.90;;
5191;SDS011;2615;44.524;11.284;2023-04-25T14:09:04;4.80;;;0.73;;
5191;SDS011;2615;44.524;11.284;2023-04-25T14:11:37;4.60;;;1.00;;
5191;SDS011;2615;44.524;11.284;2023-04-25T14:14:06;4.83;;;0.90;;
5191;SDS011;2615;44.524;11.284;2023-04-25T14:16:35;3.50;;;1.00;;
5191;SDS011;2615;44.524;11.284;2023-04-25T14:19:03;2.90;;;0.90;;
5191;SDS011;2615;44.524;11.284;2023-04-25T14:21:31;3.40;;;0.80;;
5191;SDS011;2615;44.524;11.284;2023-04-25T14:23:59;3.73;;;0.80;;
5191;SDS011;2615;44.524;11.284;2023-04-25T14:26:27;5.93;;;0.93;;
5191;SDS011;2615;44.524;11.284;2023-04-25T14:28:56;3.83;;;0.97;;
5191;SDS011;2615;44.524;11.284;2023-04-25T14:31:25;3.93;;;1.30;;
5191;SDS011;2615;44.524;11.284;2023-04-25T14:33:54;2.40;;;1.00;;
5191;SDS011;2615;44.524;11.284;2023-04-25T14:36:25;3.23;;;0.83;;
5191;SDS011;2615;44.524;11.284;2023-04-25T14:38:53;5.50;;;1.30;;
5191;SDS011;2615;44.524;11.284;2023-04-25T14:41:22;3.50;;;0.73;;
5191;SDS011;2615;44.524;11.284;2023-04-25T14:43:50;4.70;;;0.87;;
5191;SDS011;2615;44.524;11.284;2023-04-25T14:46:19;4.73;;;1.23;;
5191;SDS011;2615;44.524;11.284;2023-04-25T14:48:54;2.53;;;1.00;;
5191;SDS011;2615;44.524;11.284;2023-04-25T14:51:25;2.97;;;0.80;;
5191;SDS011;2615;44.524;11.284;2023-04-25T14:53:58;3.97;;;1.07;;
5191;SDS011;2615;44.524;11.284;2023-04-25T14:56:32;4.87;;;1.20;;
5191;SDS011;2615;44.524;11.284;2023-04-25T14:59:03;4.77;;;0.80;;
5191;SDS011;2615;44.524;11.284;2023-04-25T15:01:40;5.30;;;1.17;;
5191;SDS011;2615;44.524;11.284;2023-04-25T15:04:10;2.80;;;0.97;;
5191;SDS011;2615;44.524;11.284;2023-04-25T15:06:39;4.43;;;1.17;;